createdAt,value
2023-03-12T00:00:07.574Z,0.03
2023-03-12T00:02:06.747Z,0.03
2023-03-12T00:04:05.978Z,0.03
2023-03-12T00:06:10.537Z,0.03
2023-03-12T00:08:15.328Z,0.03
2023-03-12T00:10:05.969Z,0.03
2023-03-12T00:12:06.456Z,0.03
2023-03-12T00:14:05.654Z,0.03
2023-03-12T00:16:06.804Z,0.03
2023-03-12T00:18:05.979Z,0.03
2023-03-12T00:20:06.121Z,0.03
2023-03-12T00:22:05.621Z,0.03
2023-03-12T00:24:06.294Z,0.03
2023-03-12T00:26:09.292Z,0.03
2023-03-12T00:28:05.996Z,0.03
2023-03-12T00:30:05.764Z,0.03
2023-03-12T00:32:06.612Z,0.03
2023-03-12T00:34:05.729Z,0.03
2023-03-12T00:36:05.913Z,0.03
2023-03-12T00:38:05.593Z,0.03
2023-03-12T00:40:05.918Z,0.03
2023-03-12T00:42:05.349Z,0.03
2023-03-12T00:44:05.876Z,0.03
2023-03-12T00:46:06.260Z,0.03
2023-03-12T00:48:06.689Z,0.04
2023-03-12T00:50:05.455Z,0.04
2023-03-12T00:52:06.162Z,0.04
2023-03-12T00:54:05.858Z,0.03
2023-03-12T00:56:06.102Z,0.03
2023-03-12T00:58:05.438Z,0.03
2023-03-12T01:00:06.940Z,0.03
2023-03-12T01:02:11.656Z,0.03
2023-03-12T01:04:06.031Z,0.03
2023-03-12T01:06:08.978Z,0.03
2023-03-12T01:08:05.799Z,0.03
2023-03-12T01:10:06.211Z,0.03
2023-03-12T01:12:05.495Z,0.03
2023-03-12T01:14:05.778Z,0.03
2023-03-12T01:16:05.515Z,0.03
2023-03-12T01:18:06.426Z,0.03
2023-03-12T01:20:06.200Z,0.03
2023-03-12T01:22:05.703Z,0.03
2023-03-12T01:24:06.351Z,0.03
2023-03-12T01:26:05.302Z,0.03
2023-03-12T01:28:05.570Z,0.03
2023-03-12T01:30:06.397Z,0.03
2023-03-12T01:32:06.264Z,0.03
2023-03-12T01:34:05.439Z,0.03
2023-03-12T01:36:06.580Z,0.03
2023-03-12T01:38:06.798Z,0.03
2023-03-12T01:40:05.880Z,0.03
2023-03-12T01:42:06.365Z,0.03
2023-03-12T01:44:05.616Z,0.03
2023-03-12T01:46:06.390Z,0.03
2023-03-12T01:48:05.900Z,0.03
2023-03-12T01:50:05.780Z,0.03
2023-03-12T01:52:05.560Z,0.03
2023-03-12T01:54:05.896Z,0.03
2023-03-12T01:56:05.053Z,0.03
2023-03-12T01:58:05.886Z,0.03
2023-03-12T02:00:06.661Z,0.03
2023-03-12T02:02:11.119Z,0.03
2023-03-12T02:04:05.659Z,0.03
2023-03-12T02:06:06.338Z,0.03
2023-03-12T02:08:05.407Z,0.03
2023-03-12T02:10:05.974Z,0.03
2023-03-12T02:12:05.363Z,0.03
2023-03-12T02:14:05.929Z,0.03
2023-03-12T02:16:05.301Z,0.03
2023-03-12T02:18:06.181Z,0.03
2023-03-12T02:20:05.347Z,0.03
2023-03-12T02:22:05.981Z,0.03
2023-03-12T02:24:05.417Z,0.03
2023-03-12T02:26:05.869Z,0.03
2023-03-12T02:28:05.247Z,0.03
2023-03-12T02:30:05.954Z,0.03
2023-03-12T02:32:06.023Z,0.03
2023-03-12T02:34:06.208Z,0.03
2023-03-12T02:36:05.546Z,0.03
2023-03-12T02:38:06.139Z,0.03
2023-03-12T02:40:05.311Z,0.03
2023-03-12T02:42:05.871Z,0.03
2023-03-12T02:44:05.319Z,0.03
2023-03-12T02:46:06.311Z,0.03
2023-03-12T02:48:06.851Z,0.03
2023-03-12T02:50:05.926Z,0.03
2023-03-12T02:52:05.734Z,0.03
2023-03-12T02:54:06.243Z,0.04
2023-03-12T02:56:05.248Z,0.04
2023-03-12T02:58:06.072Z,0.04
2023-03-12T03:00:06.457Z,0.03
2023-03-12T03:02:11.132Z,0.03
2023-03-12T03:04:06.474Z,0.03
2023-03-12T03:06:05.787Z,0.03
2023-03-12T03:08:06.116Z,0.03
2023-03-12T03:10:05.552Z,0.03
2023-03-12T03:12:05.927Z,0.03
2023-03-12T03:14:05.503Z,0.03
2023-03-12T03:16:06.709Z,0.03
2023-03-12T03:18:05.666Z,0.03
2023-03-12T03:20:06.166Z,0.03
2023-03-12T03:22:05.891Z,0.03
2023-03-12T03:24:06.629Z,0.03
2023-03-12T03:26:05.530Z,0.03
2023-03-12T03:28:05.280Z,0.03
2023-03-12T03:30:06.042Z,0.03
2023-03-12T03:32:05.782Z,0.03
2023-03-12T03:34:06.034Z,0.03
2023-03-12T03:36:05.561Z,0.03
2023-03-12T03:38:06.188Z,0.03
2023-03-12T03:40:06.531Z,0.03
2023-03-12T03:42:05.903Z,0.03
2023-03-12T03:44:05.648Z,0.03
2023-03-12T03:46:06.298Z,0.03
2023-03-12T03:48:05.707Z,0.03
2023-03-12T03:50:05.826Z,0.03
2023-03-12T03:52:05.766Z,0.03
2023-03-12T03:54:06.178Z,0.03
2023-03-12T03:56:05.452Z,0.03
2023-03-12T03:58:05.944Z,0.03
2023-03-12T04:00:10.528Z,0.03
2023-03-12T04:02:14.519Z,0.03
2023-03-12T04:04:05.710Z,0.03
2023-03-12T04:06:06.182Z,0.03
2023-03-12T04:08:05.587Z,0.03
2023-03-12T04:10:06.030Z,0.03
2023-03-12T04:12:05.397Z,0.03
2023-03-12T04:14:06.118Z,0.03
2023-03-12T04:16:05.948Z,0.03
2023-03-12T04:18:06.547Z,0.03
2023-03-12T04:20:05.920Z,0.03
2023-03-12T04:22:05.393Z,0.03
2023-03-12T04:24:05.995Z,0.03
2023-03-12T04:26:06.012Z,0.03
2023-03-12T04:28:05.594Z,0.03
2023-03-12T04:30:06.331Z,0.03
2023-03-12T04:32:06.380Z,0.03
2023-03-12T04:34:05.771Z,0.03
2023-03-12T04:36:07.755Z,0.03
2023-03-12T04:38:05.754Z,0.03
2023-03-12T04:40:05.962Z,0.03
2023-03-12T04:42:05.426Z,0.03
2023-03-12T04:44:06.421Z,0.03
2023-03-12T04:46:06.038Z,0.03
2023-03-12T04:48:06.658Z,0.03
2023-03-12T04:50:05.616Z,0.03
2023-03-12T04:52:06.446Z,0.03
2023-03-12T04:54:06.399Z,0.03
2023-03-12T04:56:06.981Z,0.03
2023-03-12T04:58:05.964Z,0.03
2023-03-12T05:00:09.235Z,0.03
2023-03-12T05:02:13.301Z,0.03
2023-03-12T05:04:06.516Z,0.03
2023-03-12T05:06:05.839Z,0.03
2023-03-12T05:08:06.154Z,0.03
2023-03-12T05:10:05.627Z,0.03
2023-03-12T05:12:06.120Z,0.03
2023-03-12T05:14:05.604Z,0.03
2023-03-12T05:16:06.396Z,0.03
2023-03-12T05:18:06.264Z,0.03
2023-03-12T05:20:06.116Z,0.03
2023-03-12T05:22:05.703Z,0.03
2023-03-12T05:24:06.211Z,0.03
2023-03-12T05:26:05.505Z,0.03
2023-03-12T05:28:06.243Z,0.03
2023-03-12T05:30:05.773Z,0.23
2023-03-12T05:32:06.516Z,0.09
2023-03-12T05:34:05.871Z,0.09
2023-03-12T05:36:06.522Z,0.04
2023-03-12T05:38:05.756Z,0.04
2023-03-12T05:40:06.100Z,0.04
2023-03-12T05:42:05.760Z,0.04
2023-03-12T05:44:06.086Z,0.04
2023-03-12T05:46:05.877Z,0.04
2023-03-12T05:48:06.755Z,0.04
2023-03-12T05:50:05.857Z,0.04
2023-03-12T05:52:05.515Z,0.04
2023-03-12T05:54:05.850Z,0.04
2023-03-12T05:56:05.447Z,0.04
2023-03-12T05:58:06.470Z,0.04
2023-03-12T06:00:05.999Z,0.04
2023-03-12T06:02:10.301Z,0.04
2023-03-12T06:04:06.596Z,0.04
2023-03-12T06:06:06.526Z,0.04
2023-03-12T06:08:06.355Z,0.04
2023-03-12T06:10:06.272Z,0.04
2023-03-12T06:12:05.493Z,0.04
2023-03-12T06:14:06.540Z,0.04
2023-03-12T06:16:05.941Z,0.04
2023-03-12T06:18:06.635Z,0.04
2023-03-12T06:20:05.562Z,0.04
2023-03-12T06:22:06.375Z,0.04
2023-03-12T06:24:06.895Z,0.04
2023-03-12T06:26:05.573Z,0.04
2023-03-12T06:28:05.851Z,0.04
2023-03-12T06:30:06.645Z,0.04
2023-03-12T06:32:06.255Z,0.04
2023-03-12T06:34:06.391Z,0.04
2023-03-12T06:36:06.052Z,0.04
2023-03-12T06:38:06.453Z,0.04
2023-03-12T06:40:05.552Z,0.04
2023-03-12T06:42:06.460Z,0.04
2023-03-12T06:44:05.931Z,0.13
2023-03-12T06:46:06.215Z,0.13
2023-03-12T06:48:06.198Z,0.13
2023-03-12T06:50:06.045Z,0.04
2023-03-12T06:52:05.726Z,0.04
2023-03-12T06:54:05.881Z,0.04
2023-03-12T06:56:05.200Z,0.04
2023-03-12T06:58:05.964Z,0.04
2023-03-12T07:00:05.762Z,0.04
2023-03-12T07:02:09.883Z,0.04
2023-03-12T07:04:05.709Z,0.04
2023-03-12T07:06:06.784Z,0.04
2023-03-12T07:08:05.536Z,0.04
2023-03-12T07:10:06.083Z,0.04
2023-03-12T07:12:08.886Z,0.04
2023-03-12T07:14:06.273Z,0.04
2023-03-12T07:16:06.024Z,0.04
2023-03-12T07:18:06.307Z,0.04
2023-03-12T07:20:05.859Z,0.04
2023-03-12T07:22:06.427Z,0.04
2023-03-12T07:24:05.581Z,0.04
2023-03-12T07:26:06.030Z,0.04
2023-03-12T07:28:05.561Z,0.04
2023-03-12T07:30:06.045Z,0.04
2023-03-12T07:32:05.697Z,0.04
2023-03-12T07:34:07.300Z,0.04
2023-03-12T07:36:07.193Z,0.04
2023-03-12T07:38:07.128Z,0.04
2023-03-12T07:40:06.157Z,0.04
2023-03-12T07:42:06.461Z,0.04
2023-03-12T07:44:07.466Z,0.04
2023-03-12T07:46:07.005Z,0.04
2023-03-12T07:48:21.849Z,0.04
2023-03-12T07:50:07.149Z,0.04
2023-03-12T07:52:05.838Z,0.04
2023-03-12T07:54:06.960Z,0.04
2023-03-12T07:56:06.989Z,0.13
2023-03-12T07:58:08.501Z,0.13
2023-03-12T08:00:07.199Z,0.13
2023-03-12T08:02:10.853Z,0.13
2023-03-12T08:04:09.103Z,0.13
2023-03-12T08:06:07.338Z,0.13
2023-03-12T08:08:06.805Z,0.13
2023-03-12T08:10:06.015Z,0.13
2023-03-12T08:12:07.497Z,0.13
2023-03-12T08:14:07.063Z,0.13
2023-03-12T08:16:09.353Z,0.13
2023-03-12T08:18:05.844Z,0.13
2023-03-12T08:20:06.896Z,0.13
2023-03-12T08:22:06.698Z,0.13
2023-03-12T08:24:05.394Z,0.13
2023-03-12T08:26:06.331Z,0.13
2023-03-12T08:28:05.525Z,0.13
2023-03-12T08:30:05.947Z,0.13
2023-03-12T08:32:26.525Z,0.13
2023-03-12T08:34:10.488Z,0.13
2023-03-12T08:36:06.096Z,0.13
2023-03-12T08:38:05.379Z,0.13
2023-03-12T08:40:05.795Z,0.13
2023-03-12T08:42:05.468Z,0.13
2023-03-12T08:44:06.024Z,0.13
2023-03-12T08:46:05.581Z,0.13
2023-03-12T08:48:06.001Z,0.13
2023-03-12T08:50:06.381Z,0.13
2023-03-12T08:52:05.751Z,0.13
2023-03-12T08:54:06.017Z,0.13
2023-03-12T08:56:05.827Z,0.13
2023-03-12T08:58:06.157Z,0.13
2023-03-12T09:00:05.791Z,0.13
2023-03-12T09:02:09.685Z,0.63
2023-03-12T09:04:06.345Z,0.15
2023-03-12T09:06:06.401Z,0.15
2023-03-12T09:08:05.350Z,0.04
2023-03-12T09:10:05.903Z,0.04
2023-03-12T09:12:06.369Z,0.04
2023-03-12T09:15:15.965Z,0.04
2023-03-12T09:16:49.387Z,0.04
2023-03-12T09:20:08.001Z,0.04
2023-03-12T09:22:05.427Z,0.04
2023-03-12T09:24:05.717Z,0.04
2023-03-12T09:26:05.588Z,0.03
2023-03-12T09:28:05.931Z,0.03
2023-03-12T09:30:23.355Z,0.03
2023-03-12T09:32:06.118Z,0.03
2023-03-12T09:34:09.948Z,0.03
2023-03-12T09:36:05.776Z,0.03
2023-03-12T09:38:09.436Z,0.03
2023-03-12T09:40:06.008Z,0.03
2023-03-12T09:42:06.437Z,0.03
2023-03-12T09:44:06.491Z,0.03
2023-03-12T09:46:05.982Z,0.03
2023-03-12T09:48:05.807Z,0.03
2023-03-12T09:50:06.798Z,0.03
2023-03-12T09:52:05.371Z,0.03
2023-03-12T09:54:05.790Z,0.03
2023-03-12T09:56:06.733Z,0.03
2023-03-12T09:58:06.163Z,0.03
2023-03-12T10:00:08.295Z,0.03
2023-03-12T10:02:12.401Z,0.03
2023-03-12T10:04:06.645Z,0.03
2023-03-12T10:06:28.710Z,0.03
2023-03-12T10:08:23.114Z,0.03
2023-03-12T10:10:27.839Z,0.03
2023-03-12T10:12:06.209Z,0.03
2023-03-12T10:14:06.549Z,0.03
2023-03-12T10:16:16.025Z,0.03
2023-03-12T10:18:06.937Z,0.03
2023-03-12T10:20:07.592Z,0.03
2023-03-12T10:22:06.072Z,0.03
2023-03-12T10:24:05.430Z,0.03
2023-03-12T10:26:07.012Z,0.03
2023-03-12T10:28:05.512Z,0.03
2023-03-12T10:30:07.578Z,0.03
2023-03-12T10:32:06.104Z,0.03
2023-03-12T10:34:06.669Z,0.03
2023-03-12T10:36:07.332Z,0.03
2023-03-12T10:38:05.970Z,0.03
2023-03-12T10:40:05.451Z,0.03
2023-03-12T10:42:08.889Z,0.03
2023-03-12T10:44:05.281Z,0.03
2023-03-12T10:46:06.230Z,0.03
2023-03-12T10:48:06.247Z,0.03
2023-03-12T10:50:06.046Z,0.03
2023-03-12T10:52:05.502Z,0.03
2023-03-12T10:54:06.403Z,0.03
2023-03-12T10:56:05.661Z,0.03
2023-03-12T10:58:05.440Z,0.03
2023-03-12T11:00:08.850Z,0.03
2023-03-12T11:02:13.225Z,0.03
2023-03-12T11:04:06.245Z,0.03
2023-03-12T11:06:06.327Z,0.03
2023-03-12T11:08:05.705Z,0.03
2023-03-12T11:10:25.768Z,0.03
2023-03-12T11:12:07.245Z,0.03
2023-03-12T11:14:05.139Z,0.03
2023-03-12T11:16:06.089Z,0.03
2023-03-12T11:18:05.940Z,0.03
2023-03-12T11:20:05.797Z,0.03
2023-03-12T11:22:06.035Z,0.03
2023-03-12T11:24:05.635Z,0.03
2023-03-12T11:26:05.943Z,0.03
2023-03-12T11:28:06.232Z,0.03
2023-03-12T11:30:05.927Z,0.03
2023-03-12T11:32:09.830Z,0.03
2023-03-12T11:34:05.812Z,0.03
2023-03-12T11:36:05.887Z,0.03
2023-03-12T11:38:06.121Z,0.03
2023-03-12T11:40:05.697Z,0.03
2023-03-12T11:42:06.208Z,0.03
2023-03-12T11:44:27.044Z,0.03
2023-03-12T11:46:06.164Z,0.03
2023-03-12T11:48:06.721Z,0.03
2023-03-12T11:50:06.389Z,0.03
2023-03-12T11:52:05.731Z,0.03
2023-03-12T11:54:06.385Z,0.03
2023-03-12T11:56:05.465Z,0.03
2023-03-12T11:58:05.725Z,0.03
2023-03-12T12:00:09.919Z,0.03
2023-03-12T12:02:07.274Z,0.03
2023-03-12T12:04:06.321Z,0.03
2023-03-12T12:06:05.868Z,0.03
2023-03-12T12:08:07.198Z,0.03
2023-03-12T12:10:05.886Z,0.03
2023-03-12T12:12:06.195Z,0.03
2023-03-12T12:14:09.605Z,0.03
2023-03-12T12:16:06.486Z,0.03
2023-03-12T12:18:06.857Z,0.03
2023-03-12T12:20:06.238Z,0.03
2023-03-12T12:22:06.059Z,0.03
2023-03-12T12:24:07.529Z,0.03
2023-03-12T12:26:07.072Z,0.03
2023-03-12T12:28:05.936Z,0.03
2023-03-12T12:30:05.600Z,0.03
2023-03-12T12:32:06.434Z,0.03
2023-03-12T12:34:05.873Z,0.03
2023-03-12T12:36:06.095Z,0.03
2023-03-12T12:38:06.695Z,0.03
2023-03-12T12:40:09.394Z,0.03
2023-03-12T12:42:05.463Z,0.03
2023-03-12T12:44:06.044Z,0.03
2023-03-12T12:46:05.699Z,0.03
2023-03-12T12:48:06.584Z,0.03
2023-03-12T12:50:05.886Z,0.03
2023-03-12T12:52:07.182Z,0.03
2023-03-12T12:54:05.656Z,0.03
2023-03-12T12:56:06.080Z,0.03
2023-03-12T12:58:08.218Z,0.03
2023-03-12T13:00:05.457Z,0.03
2023-03-12T13:02:13.018Z,0.03
2023-03-12T13:04:05.500Z,0.03
2023-03-12T13:06:05.920Z,0.03
2023-03-12T13:08:06.452Z,0.03
2023-03-12T13:10:05.821Z,0.03
2023-03-12T13:12:28.146Z,0.03
2023-03-12T13:14:05.519Z,0.03
2023-03-12T13:16:06.852Z,0.03
2023-03-12T13:18:06.000Z,0.03
2023-03-12T13:20:21.516Z,0.03
2023-03-12T13:22:06.210Z,0.03
2023-03-12T13:24:06.281Z,0.03
2023-03-12T13:26:05.441Z,0.03
2023-03-12T13:28:05.926Z,0.03
2023-03-12T13:30:20.300Z,0.03
2023-03-12T13:32:06.454Z,0.03
2023-03-12T13:34:05.774Z,0.03
2023-03-12T13:36:09.938Z,0.03
2023-03-12T13:38:06.036Z,0.03
2023-03-12T13:40:05.329Z,0.03
2023-03-12T13:42:05.888Z,0.03
2023-03-12T13:44:05.437Z,0.03
2023-03-12T13:46:06.861Z,0.03
2023-03-12T13:48:06.729Z,0.03
2023-03-12T13:50:05.687Z,0.03
2023-03-12T13:52:06.408Z,0.03
2023-03-12T13:54:05.871Z,0.03
2023-03-12T13:56:06.188Z,0.03
2023-03-12T13:58:05.506Z,0.03
2023-03-12T14:00:06.616Z,0.03
2023-03-12T14:02:11.158Z,0.03
2023-03-12T14:04:05.479Z,0.03
2023-03-12T14:06:06.580Z,0.03
2023-03-12T14:08:05.554Z,0.03
2023-03-12T14:10:08.714Z,0.03
2023-03-12T14:12:05.407Z,0.03
2023-03-12T14:14:06.447Z,0.03
2023-03-12T14:16:05.777Z,0.03
2023-03-12T14:18:06.344Z,0.03
2023-03-12T14:20:05.546Z,0.03
2023-03-12T14:22:06.249Z,0.03
2023-03-12T14:24:05.488Z,0.03
2023-03-12T14:26:05.726Z,0.03
2023-03-12T14:28:08.395Z,0.03
2023-03-12T14:30:06.087Z,0.03
2023-03-12T14:32:06.019Z,0.03
2023-03-12T14:34:08.893Z,0.03
2023-03-12T14:36:05.548Z,0.03
2023-03-12T14:38:06.009Z,0.03
2023-03-12T14:40:05.449Z,0.03
2023-03-12T14:42:05.992Z,0.03
2023-03-12T14:44:05.433Z,0.03
2023-03-12T14:46:05.892Z,0.03
2023-03-12T14:48:05.837Z,0.03
2023-03-12T14:50:05.944Z,0.03
2023-03-12T14:52:09.493Z,0.03
2023-03-12T14:54:05.938Z,0.03
2023-03-12T14:56:06.565Z,0.03
2023-03-12T14:58:05.684Z,0.03
2023-03-12T15:00:06.350Z,0.03
2023-03-12T15:02:09.481Z,0.03
2023-03-12T15:04:06.354Z,0.03
2023-03-12T15:06:06.225Z,0.03
2023-03-12T15:08:06.381Z,0.03
2023-03-12T15:10:05.184Z,0.03
2023-03-12T15:12:05.640Z,0.03
2023-03-12T15:14:06.297Z,0.03
2023-03-12T15:16:06.078Z,0.03
2023-03-12T15:18:08.195Z,0.03
2023-03-12T15:20:05.669Z,0.03
2023-03-12T15:22:05.550Z,0.03
2023-03-12T15:24:05.990Z,0.03
2023-03-12T15:26:05.410Z,0.03
2023-03-12T15:28:06.236Z,0.03
2023-03-12T15:30:06.156Z,0.03
2023-03-12T15:32:06.515Z,0.03
2023-03-12T15:34:07.759Z,0.03
2023-03-12T15:36:08.399Z,0.03
2023-03-12T15:38:06.574Z,0.03
2023-03-12T15:40:05.925Z,0.03
2023-03-12T15:42:08.792Z,0.03
2023-03-12T15:44:06.080Z,0.03
2023-03-12T15:46:06.146Z,0.03
2023-03-12T15:48:09.632Z,0.03
2023-03-12T15:50:05.526Z,0.03
2023-03-12T15:52:06.233Z,0.03
2023-03-12T15:54:05.348Z,0.03
2023-03-12T15:56:06.050Z,0.03
2023-03-12T15:58:05.560Z,0.03
2023-03-12T16:00:06.195Z,0.03
2023-03-12T16:02:10.154Z,0.03
2023-03-12T16:04:06.101Z,0.03
2023-03-12T16:06:06.301Z,0.03
2023-03-12T16:08:05.657Z,0.03
2023-03-12T16:10:05.933Z,0.03
2023-03-12T16:12:05.624Z,0.03
2023-03-12T16:14:06.206Z,0.03
2023-03-12T16:16:05.364Z,0.03
2023-03-12T16:18:06.446Z,0.03
2023-03-12T16:20:05.904Z,0.03
2023-03-12T16:22:06.056Z,0.03
2023-03-12T16:24:06.252Z,0.03
2023-03-12T16:26:08.523Z,0.03
2023-03-12T16:28:17.447Z,0.03
2023-03-12T16:30:05.813Z,0.03
2023-03-12T16:32:05.760Z,0.03
2023-03-12T16:34:06.515Z,0.03
2023-03-12T16:36:06.127Z,0.03
2023-03-12T16:38:07.066Z,0.03
2023-03-12T16:40:07.072Z,0.03
2023-03-12T16:42:15.993Z,0.03
2023-03-12T16:44:07.030Z,0.03
2023-03-12T16:46:06.088Z,0.03
2023-03-12T16:48:07.074Z,0.03
2023-03-12T16:50:06.995Z,0.03
2023-03-12T16:52:07.700Z,0.03
2023-03-12T16:54:21.546Z,0.03
2023-03-12T16:56:15.669Z,0.03
2023-03-12T16:58:05.782Z,0.03
2023-03-12T17:00:06.906Z,0.03
2023-03-12T17:02:10.189Z,0.03
2023-03-12T17:04:10.123Z,0.03
2023-03-12T17:06:06.575Z,0.03
2023-03-12T17:08:05.813Z,0.03
2023-03-12T17:10:06.655Z,0.03
2023-03-12T17:12:06.919Z,0.03
2023-03-12T17:14:07.688Z,0.03
2023-03-12T17:16:05.852Z,0.03
2023-03-12T17:18:07.065Z,0.03
2023-03-12T17:20:05.655Z,0.03
2023-03-12T17:22:06.389Z,0.03
2023-03-12T17:24:06.430Z,0.03
2023-03-12T17:26:05.442Z,0.03
2023-03-12T17:28:05.806Z,0.03
2023-03-12T17:30:06.160Z,0.03
2023-03-12T17:32:05.911Z,0.03
2023-03-12T17:34:06.397Z,0.03
2023-03-12T17:36:05.714Z,0.03
2023-03-12T17:38:05.747Z,0.03
2023-03-12T17:40:09.654Z,0.03
2023-03-12T17:42:22.826Z,0.03
2023-03-12T17:44:05.536Z,0.03
2023-03-12T17:46:08.330Z,0.03
2023-03-12T17:48:18.619Z,0.03
2023-03-12T17:50:06.560Z,0.03
2023-03-12T17:52:05.567Z,0.03
2023-03-12T17:54:06.122Z,0.03
2023-03-12T17:56:08.246Z,0.03
2023-03-12T17:58:05.928Z,0.03
2023-03-12T18:00:05.390Z,0.03
2023-03-12T18:02:09.948Z,0.03
2023-03-12T18:04:05.951Z,0.03
2023-03-12T18:06:06.470Z,0.03
2023-03-12T18:08:05.300Z,0.03
2023-03-12T18:10:05.884Z,0.03
2023-03-12T18:12:06.693Z,0.03
2023-03-12T18:14:05.672Z,0.03
2023-03-12T18:16:06.824Z,0.03
2023-03-12T18:18:06.287Z,0.03
2023-03-12T18:20:09.220Z,0.03
2023-03-12T18:22:19.558Z,0.03
2023-03-12T18:24:14.302Z,0.03
2023-03-12T18:26:17.801Z,0.03
2023-03-12T18:28:08.025Z,0.03
2023-03-12T18:30:05.352Z,0.03
2023-03-12T18:32:06.785Z,0.03
2023-03-12T18:34:05.881Z,0.03
2023-03-12T18:36:06.329Z,0.03
2023-03-12T18:38:05.452Z,0.03
2023-03-12T18:40:06.009Z,0.03
2023-03-12T18:42:05.469Z,0.03
2023-03-12T18:44:07.140Z,0.03
2023-03-12T18:46:06.314Z,0.03
2023-03-12T18:48:06.526Z,0.03
2023-03-12T18:50:06.073Z,0.03
2023-03-12T18:52:05.495Z,0.03
2023-03-12T18:54:06.053Z,0.03
2023-03-12T18:56:06.366Z,0.03
2023-03-12T18:58:05.868Z,0.03
2023-03-12T19:00:06.409Z,0.03
2023-03-12T19:02:10.426Z,0.03
2023-03-12T19:04:08.164Z,0.03
2023-03-12T19:06:05.975Z,0.03
2023-03-12T19:08:23.888Z,0.03
2023-03-12T19:10:05.514Z,0.03
2023-03-12T19:12:06.341Z,0.03
2023-03-12T19:14:19.200Z,0.03
2023-03-12T19:16:06.251Z,0.03
2023-03-12T19:18:06.604Z,0.03
2023-03-12T19:20:05.745Z,0.03
2023-03-12T19:22:07.841Z,0.03
2023-03-12T19:24:05.636Z,0.03
2023-03-12T19:26:06.303Z,0.03
2023-03-12T19:28:05.914Z,0.06
2023-03-12T19:30:05.152Z,0.06
2023-03-12T19:32:06.767Z,0.06
2023-03-12T19:34:15.450Z,0.03
2023-03-12T19:36:06.025Z,0.03
2023-03-12T19:38:06.214Z,0.03
2023-03-12T19:40:17.416Z,0.03
2023-03-12T19:42:06.460Z,0.03
2023-03-12T19:44:05.382Z,0.03
2023-03-12T19:46:06.352Z,0.03
2023-03-12T19:48:05.796Z,0.03
2023-03-12T19:50:06.042Z,0.03
2023-03-12T19:52:05.623Z,0.03
2023-03-12T19:54:06.082Z,0.03
2023-03-12T19:56:22.030Z,0.03
2023-03-12T19:58:05.870Z,0.03
2023-03-12T20:00:05.816Z,0.03
2023-03-12T20:02:09.980Z,0.03
2023-03-12T20:04:07.413Z,0.03
2023-03-12T20:06:06.230Z,0.03
2023-03-12T20:08:05.397Z,0.03
2023-03-12T20:10:05.840Z,0.03
2023-03-12T20:12:05.606Z,0.03
2023-03-12T20:14:05.898Z,0.03
2023-03-12T20:16:05.458Z,0.03
2023-03-12T20:18:06.598Z,0.03
2023-03-12T20:20:05.738Z,0.03
2023-03-12T20:22:05.841Z,0.03
2023-03-12T20:24:05.384Z,0.03
2023-03-12T20:26:05.781Z,0.03
2023-03-12T20:28:06.232Z,0.03
2023-03-12T20:30:05.584Z,0.03
2023-03-12T20:32:06.730Z,0.03
2023-03-12T20:34:06.539Z,0.03
2023-03-12T20:36:06.518Z,0.03
2023-03-12T20:38:05.557Z,0.03
2023-03-12T20:40:05.987Z,0.09
2023-03-12T20:42:05.497Z,0.09
2023-03-12T20:44:05.832Z,0.09
2023-03-12T20:46:06.447Z,0.04
2023-03-12T20:48:06.238Z,0.04
2023-03-12T20:50:06.292Z,0.04
2023-03-12T20:52:05.626Z,0.04
2023-03-12T20:54:05.883Z,0.04
2023-03-12T20:56:07.076Z,0.04
2023-03-12T20:58:06.115Z,0.04
2023-03-12T21:00:05.505Z,0.04
2023-03-12T21:02:10.172Z,0.04
2023-03-12T21:04:06.077Z,0.04
2023-03-12T21:06:09.939Z,0.04
2023-03-12T21:08:05.587Z,0.04
2023-03-12T21:10:05.912Z,0.04
2023-03-12T21:12:05.703Z,0.04
2023-03-12T21:14:05.892Z,0.04
2023-03-12T21:16:05.393Z,0.04
2023-03-12T21:18:06.636Z,0.04
2023-03-12T21:20:09.029Z,0.04
2023-03-12T21:22:05.809Z,0.04
2023-03-12T21:24:06.563Z,0.04
2023-03-12T21:26:08.552Z,0.04
2023-03-12T21:28:23.480Z,0.04
2023-03-12T21:30:05.407Z,0.04
2023-03-12T21:32:06.781Z,0.04
2023-03-12T21:34:09.015Z,0.04
2023-03-12T21:36:05.810Z,0.04
2023-03-12T21:38:06.226Z,0.04
2023-03-12T21:40:05.672Z,0.04
2023-03-12T21:42:06.195Z,0.04
2023-03-12T21:44:05.729Z,0.04
2023-03-12T21:46:08.984Z,0.04
2023-03-12T21:48:06.427Z,0.04
2023-03-12T21:50:06.179Z,0.04
2023-03-12T21:52:05.787Z,0.04
2023-03-12T21:54:20.081Z,0.04
2023-03-12T21:56:05.993Z,0.04
2023-03-12T21:58:05.499Z,0.04
2023-03-12T22:00:05.973Z,0.04
2023-03-12T22:02:10.185Z,0.04
2023-03-12T22:04:09.170Z,0.04
2023-03-12T22:06:05.907Z,0.04
2023-03-12T22:08:05.949Z,0.04
2023-03-12T22:10:05.699Z,0.04
2023-03-12T22:12:06.234Z,0.04
2023-03-12T22:14:05.642Z,0.04
2023-03-12T22:16:06.380Z,0.04
2023-03-12T22:18:06.263Z,0.04
2023-03-12T22:20:06.054Z,0.04
2023-03-12T22:22:05.588Z,0.04
2023-03-12T22:24:05.945Z,0.04
2023-03-12T22:26:05.736Z,0.04
2023-03-12T22:28:05.987Z,0.04
2023-03-12T22:30:07.423Z,0.04
2023-03-12T22:32:06.820Z,0.04
2023-03-12T22:34:06.298Z,0.04
2023-03-12T22:36:05.386Z,0.04
2023-03-12T22:38:05.867Z,0.04
2023-03-12T22:40:05.761Z,0.04
2023-03-12T22:42:06.168Z,0.04
2023-03-12T22:44:05.554Z,0.04
2023-03-12T22:46:06.012Z,0.04
2023-03-12T22:48:06.212Z,0.04
2023-03-12T22:50:05.991Z,0.04
2023-03-12T22:52:05.612Z,0.04
2023-03-12T22:54:06.162Z,0.04
2023-03-12T22:56:05.761Z,0.04
2023-03-12T22:58:06.129Z,0.04
2023-03-12T23:00:14.874Z,0.04
2023-03-12T23:02:08.142Z,0.04
2023-03-12T23:04:05.886Z,0.04
2023-03-12T23:06:06.903Z,0.04
2023-03-12T23:08:21.218Z,0.04
2023-03-12T23:10:06.996Z,0.04
2023-03-12T23:12:06.279Z,0.04
2023-03-12T23:14:05.737Z,0.04
2023-03-12T23:16:15.804Z,0.04
2023-03-12T23:18:06.308Z,0.04
2023-03-12T23:20:06.165Z,0.04
2023-03-12T23:22:05.541Z,0.04
2023-03-12T23:24:06.227Z,0.04
2023-03-12T23:26:05.705Z,0.04
2023-03-12T23:28:06.140Z,0.04
2023-03-12T23:30:05.468Z,0.04
2023-03-12T23:32:06.283Z,0.04
2023-03-12T23:34:07.687Z,0.04
2023-03-12T23:36:06.186Z,0.04
2023-03-12T23:38:06.037Z,0.04
2023-03-12T23:40:22.197Z,0.04
2023-03-12T23:42:05.827Z,0.04
2023-03-12T23:44:05.669Z,0.04
2023-03-12T23:46:06.394Z,0.04
2023-03-12T23:48:06.300Z,0.04
2023-03-12T23:50:06.125Z,0.04
2023-03-12T23:52:05.745Z,0.04
2023-03-12T23:54:06.591Z,0.04
2023-03-12T23:56:05.747Z,0.04
2023-03-12T23:58:06.263Z,0.04
